Time,TemperatureF,DewpointF,PressureIn,WindDirection,WindDirectionDegrees,WindSpeedMPH,WindSpeedGustMPH,Humidity,HourlyPrecipIn,Conditions,Clouds,dailyrainin,SoftwareType,DateUTC
2013-08-04 00:00:00,60.5,56.9,30.15,NE,56,0.0,0.0,88,0.00,,,0.00,Wunderground v.1.15,2013-08-04 05:00:00,
2013-08-04 00:10:00,60.5,56.9,30.15,ENE,67,0.0,0.0,88,0.00,,,0.00,Wunderground v.1.15,2013-08-04 05:10:00,
2013-08-04 00:20:00,60.3,56.7,30.15,East,86,0.0,0.0,88,0.00,,,0.00,Wunderground v.1.15,2013-08-04 05:20:00,
2013-08-04 00:25:00,60.2,56.9,30.15,NE,53,0.0,0.0,89,0.00,,,0.00,Wunderground v.1.15,2013-08-04 05:25:00,
2013-08-04 00:35:00,60.2,56.9,30.15,ENE,74,0.0,0.0,89,0.00,,,0.00,Wunderground v.1.15,2013-08-04 05:35:00,
2013-08-04 00:45:00,60.2,56.9,30.15,ENE,60,0.0,0.0,89,0.00,,,0.00,Wunderground v.1.15,2013-08-04 05:45:00,
2013-08-04 00:55:00,60.2,56.9,30.14,ENE,66,0.0,0.0,89,0.00,,,0.00,Wunderground v.1.15,2013-08-04 05:55:00,
2013-08-04 01:04:00,60.2,56.9,30.14,ENE,64,0.0,0.0,89,0.00,,,0.00,Wunderground v.1.15,2013-08-04 06:04:00,
2013-08-04 01:15:00,60.4,57.1,30.14,NE,49,0.0,0.0,89,0.00,,,0.00,Wunderground v.1.15,2013-08-04 06:15:00,
2013-08-04 01:20:00,60.4,57.1,30.13,NE,51,0.0,0.0,89,0.00,,,0.00,Wunderground v.1.15,2013-08-04 06:20:00,
2013-08-04 01:29:00,60.3,57.0,30.13,ESE,105,0.0,0.0,89,0.00,,,0.00,Wunderground v.1.15,2013-08-04 06:29:00,
2013-08-04 01:40:00,60.0,56.7,30.13,East,92,0.0,0.0,89,0.00,,,0.00,Wunderground v.1.15,2013-08-04 06:40:00,
2013-08-04 01:44:00,60.0,56.7,30.12,East,92,0.0,0.0,89,0.00,,,0.00,Wunderground v.1.15,2013-08-04 06:44:00,
2013-08-04 01:54:00,59.9,56.6,30.11,ENE,58,0.0,0.0,89,0.00,,,0.00,Wunderground v.1.15,2013-08-04 06:54:00,
2013-08-04 02:04:00,59.7,56.5,30.11,ENE,76,0.0,1.0,89,0.00,,,0.00,Wunderground v.1.15,2013-08-04 07:04:00,
2013-08-04 02:15:00,59.7,56.5,30.10,ENE,67,0.0,0.0,89,0.00,,,0.00,Wunderground v.1.15,2013-08-04 07:15:00,
2013-08-04 02:20:00,59.8,56.6,30.10,East,93,0.0,0.0,89,0.00,,,0.00,Wunderground v.1.15,2013-08-04 07:20:00,
2013-08-04 02:29:00,60.0,56.4,30.10,NNE,23,0.0,0.0,88,0.00,,,0.00,Wunderground v.1.15,2013-08-04 07:29:00,
2013-08-04 02:39:00,59.8,56.2,30.11,East,85,0.0,0.0,88,0.00,,,0.00,Wunderground v.1.15,2013-08-04 07:39:00,
2013-08-04 02:45:00,59.7,56.1,30.11,ENE,63,0.0,0.0,88,0.00,,,0.00,Wunderground v.1.15,2013-08-04 07:45:00,
2013-08-04 02:55:00,59.8,56.2,30.11,East,86,0.0,0.0,88,0.00,,,0.00,Wunderground v.1.15,2013-08-04 07:55:00,
2013-08-04 03:05:00,59.8,56.2,30.10,ENE,74,0.0,0.0,88,0.00,,,0.00,Wunderground v.1.15,2013-08-04 08:05:00,
2013-08-04 03:14:00,59.7,55.8,30.10,East,89,0.0,0.0,87,0.00,,,0.00,Wunderground v.1.15,2013-08-04 08:14:00,
2013-08-04 03:20:00,59.7,55.8,30.10,East,90,0.0,0.0,87,0.00,,,0.00,Wunderground v.1.15,2013-08-04 08:20:00,
2013-08-04 03:30:00,59.6,55.7,30.10,East,79,0.0,0.0,87,0.00,,,0.00,Wunderground v.1.15,2013-08-04 08:30:00,
2013-08-04 03:35:00,59.5,55.6,30.10,ENE,60,0.0,0.0,87,0.00,,,0.00,Wunderground v.1.15,2013-08-04 08:35:00,
2013-08-04 03:45:00,59.4,55.5,30.10,East,92,0.0,0.0,87,0.00,,,0.00,Wunderground v.1.15,2013-08-04 08:45:00,
2013-08-04 03:55:00,59.2,55.6,30.11,ESE,108,0.0,0.0,88,0.00,,,0.00,Wunderground v.1.15,2013-08-04 08:55:00,
2013-08-04 04:05:00,58.8,55.3,30.12,ESE,123,0.0,0.0,88,0.00,,,0.00,Wunderground v.1.15,2013-08-04 09:05:00,
2013-08-04 04:15:00,58.7,55.5,30.12,ESE,108,0.0,0.0,89,0.00,,,0.00,Wunderground v.1.15,2013-08-04 09:15:00,
2013-08-04 04:24:00,58.4,55.2,30.14,ESE,119,0.0,0.0,89,0.00,,,0.00,Wunderground v.1.15,2013-08-04 09:24:00,
2013-08-04 04:30:00,58.2,55.3,30.14,ENE,72,0.0,0.0,90,0.00,,,0.00,Wunderground v.1.15,2013-08-04 09:30:00,
2013-08-04 04:40:00,57.7,55.1,30.15,ENE,72,0.0,0.0,91,0.00,,,0.00,Wunderground v.1.15,2013-08-04 09:40:00,
2013-08-04 04:45:00,57.5,55.2,30.15,ENE,74,0.0,0.0,92,0.00,,,0.00,Wunderground v.1.15,2013-08-04 09:45:00,
2013-08-04 04:55:00,57.3,55.3,30.15,ENE,77,0.0,0.0,93,0.00,,,0.00,Wunderground v.1.15,2013-08-04 09:55:00,
2013-08-04 05:05:00,57.8,55.8,30.14,ESE,117,0.0,0.0,93,0.00,,,0.00,Wunderground v.1.15,2013-08-04 10:05:00,
2013-08-04 05:14:00,58.4,55.8,30.14,ESE,110,0.0,0.0,91,0.00,,,0.00,Wunderground v.1.15,2013-08-04 10:14:00,
2013-08-04 05:24:00,58.5,55.6,30.14,ENE,63,0.0,0.0,90,0.00,,,0.00,Wunderground v.1.15,2013-08-04 10:24:00,
2013-08-04 05:34:00,58.5,55.6,30.14,East,93,0.0,0.0,90,0.00,,,0.00,Wunderground v.1.15,2013-08-04 10:34:00,
2013-08-04 05:40:00,58.5,55.6,30.14,East,101,0.0,0.0,90,0.00,,,0.00,Wunderground v.1.15,2013-08-04 10:40:00,
2013-08-04 05:50:00,58.8,55.6,30.13,ESE,116,0.0,1.0,89,0.00,,,0.00,Wunderground v.1.15,2013-08-04 10:50:00,
2013-08-04 05:55:00,59.0,55.8,30.14,SE,127,1.0,1.0,89,0.00,,,0.00,Wunderground v.1.15,2013-08-04 10:55:00,
2013-08-04 06:00:00,59.0,55.8,30.14,ESE,116,0.0,0.0,89,0.00,,,0.00,Wunderground v.1.15,2013-08-04 11:00:00,
2013-08-04 06:10:00,59.0,55.8,30.13,East,83,0.0,0.0,89,0.00,,,0.00,Wunderground v.1.15,2013-08-04 11:10:00,
2013-08-04 06:19:00,58.7,55.5,30.13,East,98,0.0,0.0,89,0.00,,,0.00,Wunderground v.1.15,2013-08-04 11:19:00,
2013-08-04 06:24:00,58.6,55.7,30.12,East,99,0.0,0.0,90,0.00,,,0.00,Wunderground v.1.15,2013-08-04 11:24:00,
2013-08-04 06:34:00,58.5,55.6,30.12,ENE,71,0.0,0.0,90,0.00,,,0.00,Wunderground v.1.15,2013-08-04 11:34:00,
2013-08-04 06:44:00,58.7,55.5,30.11,SE,141,0.0,0.0,89,0.00,,,0.00,Wunderground v.1.15,2013-08-04 11:44:00,
2013-08-04 06:49:00,59.0,55.8,30.11,SE,131,1.0,1.0,89,0.00,,,0.00,Wunderground v.1.15,2013-08-04 11:49:00,
2013-08-04 06:55:00,59.2,55.6,30.11,ESE,105,1.0,1.0,88,0.00,,,0.00,Wunderground v.1.15,2013-08-04 11:55:00,
2013-08-04 07:05:00,59.4,55.5,30.11,ESE,120,1.0,2.0,87,0.00,,,0.00,Wunderground v.1.15,2013-08-04 12:05:00,
2013-08-04 07:15:00,59.2,55.6,30.12,ESE,123,1.0,4.0,88,0.00,,,0.00,Wunderground v.1.15,2013-08-04 12:15:00,
2013-08-04 07:25:00,59.1,55.5,30.12,ENE,78,0.0,4.0,88,0.00,,,0.00,Wunderground v.1.15,2013-08-04 12:25:00,
2013-08-04 07:34:00,59.1,55.9,30.12,ESE,103,0.0,4.0,89,0.00,,,0.00,Wunderground v.1.15,2013-08-04 12:34:00,
2013-08-04 07:44:00,59.7,56.1,30.13,SE,131,0.0,4.0,88,0.00,,,0.00,Wunderground v.1.15,2013-08-04 12:44:00,
2013-08-04 07:49:00,60.1,56.5,30.13,ESE,118,0.0,4.0,88,0.00,,,0.00,Wunderground v.1.15,2013-08-04 12:49:00,
2013-08-04 07:54:00,60.9,56.7,30.12,SE,124,1.0,4.0,86,0.00,,,0.00,Wunderground v.1.15,2013-08-04 12:54:00,
2013-08-04 08:05:00,62.0,56.8,30.12,ESE,121,2.0,2.0,83,0.00,,,0.00,Wunderground v.1.15,2013-08-04 13:05:00,
2013-08-04 08:15:00,62.2,56.6,30.10,ESE,114,3.0,4.0,82,0.00,,,0.00,Wunderground v.1.15,2013-08-04 13:15:00,
2013-08-04 08:25:00,62.9,57.3,30.11,East,81,1.0,4.0,82,0.00,,,0.00,Wunderground v.1.15,2013-08-04 13:25:00,
2013-08-04 08:34:00,63.7,57.4,30.09,SSE,153,2.0,4.0,80,0.00,,,0.00,Wunderground v.1.15,2013-08-04 13:34:00,
2013-08-04 08:44:00,64.7,57.7,30.10,SE,127,2.0,4.0,78,0.00,,,0.00,Wunderground v.1.15,2013-08-04 13:44:00,
2013-08-04 08:49:00,65.2,58.2,30.10,ESE,109,2.0,2.0,78,0.00,,,0.00,Wunderground v.1.15,2013-08-04 13:49:00,
2013-08-04 08:55:00,65.5,57.7,30.10,SSE,166,2.0,3.0,76,0.00,,,0.00,Wunderground v.1.15,2013-08-04 13:55:00,
2013-08-04 09:05:00,65.9,57.7,30.10,ESE,106,4.0,8.0,75,0.00,,,0.00,Wunderground v.1.15,2013-08-04 14:05:00,
2013-08-04 09:14:00,67.1,58.9,30.11,East,96,2.0,4.0,75,0.00,,,0.00,Wunderground v.1.15,2013-08-04 14:14:00,
2013-08-04 09:25:00,67.0,58.8,30.11,SE,136,2.0,4.0,75,0.00,,,0.00,Wunderground v.1.15,2013-08-04 14:25:00,
2013-08-04 09:35:00,66.4,59.0,30.12,SE,143,2.0,4.0,77,0.00,,,0.00,Wunderground v.1.15,2013-08-04 14:35:00,
2013-08-04 09:44:00,66.4,59.0,30.12,ESE,102,1.0,4.0,77,0.00,,,0.00,Wunderground v.1.15,2013-08-04 14:44:00,
2013-08-04 09:54:00,66.7,58.9,30.11,SSE,152,2.0,4.0,76,0.00,,,0.00,Wunderground v.1.15,2013-08-04 14:54:00,
2013-08-04 10:00:00,66.8,59.0,30.11,East,90,2.0,4.0,76,0.00,,,0.00,Wunderground v.1.15,2013-08-04 15:00:00,
2013-08-04 10:05:00,66.9,59.1,30.11,SE,131,2.0,4.0,76,0.00,,,0.00,Wunderground v.1.15,2013-08-04 15:05:00,
2013-08-04 10:14:00,67.4,59.2,30.11,SE,129,2.0,4.0,75,0.00,,,0.00,Wunderground v.1.15,2013-08-04 15:14:00,
2013-08-04 10:25:00,67.8,59.6,30.12,ESE,114,1.0,6.0,75,0.00,,,0.00,Wunderground v.1.15,2013-08-04 15:25:00,
2013-08-04 10:35:00,67.6,59.0,30.12,East,85,2.0,2.0,74,0.00,,,0.00,Wunderground v.1.15,2013-08-04 15:35:00,
2013-08-04 10:44:00,67.4,59.2,30.12,ENE,71,1.0,4.0,75,0.00,,,0.00,Wunderground v.1.15,2013-08-04 15:44:00,
2013-08-04 10:54:00,67.1,59.6,30.12,NE,56,0.0,4.0,77,0.00,,,0.00,Wunderground v.1.15,2013-08-04 15:54:00,
2013-08-04 10:59:00,67.1,59.6,30.12,ENE,72,0.0,4.0,77,0.00,,,0.00,Wunderground v.1.15,2013-08-04 15:59:00,
2013-08-04 11:09:00,67.0,59.5,30.12,ENE,77,0.0,4.0,77,0.00,,,0.00,Wunderground v.1.15,2013-08-04 16:09:00,
2013-08-04 11:15:00,66.9,59.8,30.11,North,359,0.0,4.0,78,0.00,,,0.00,Wunderground v.1.15,2013-08-04 16:15:00,
2013-08-04 11:25:00,66.8,60.1,30.11,ENE,70,1.0,2.0,79,0.00,,,0.00,Wunderground v.1.15,2013-08-04 16:25:00,
2013-08-04 11:35:00,66.6,59.9,30.11,WNW,300,1.0,4.0,79,0.00,,,0.00,Wunderground v.1.15,2013-08-04 16:35:00,
2013-08-04 11:45:00,66.6,59.9,30.11,SE,145,1.0,4.0,79,0.00,,,0.00,Wunderground v.1.15,2013-08-04 16:45:00,
2013-08-04 11:54:00,65.9,60.2,30.11,East,87,1.0,6.0,82,0.00,,,0.00,Wunderground v.1.15,2013-08-04 16:54:00,
2013-08-04 12:00:00,65.8,60.5,30.10,East,87,1.0,1.0,83,0.00,,,0.00,Wunderground v.1.15,2013-08-04 17:00:00,
2013-08-04 12:10:00,65.8,60.5,30.10,East,94,1.0,1.0,83,0.00,,,0.00,Wunderground v.1.15,2013-08-04 17:10:00,
2013-08-04 12:20:00,66.0,60.3,30.09,East,101,1.0,1.0,82,0.00,,,0.00,Wunderground v.1.15,2013-08-04 17:20:00,
2013-08-04 12:24:00,66.3,60.6,30.08,WNW,283,2.0,2.0,82,0.00,,,0.00,Wunderground v.1.15,2013-08-04 17:24:00,
2013-08-04 12:35:00,67.4,61.0,30.07,East,94,2.0,6.0,80,0.00,,,0.00,Wunderground v.1.15,2013-08-04 17:35:00,
2013-08-04 12:45:00,68.5,61.0,30.07,East,95,3.0,4.0,77,0.00,,,0.00,Wunderground v.1.15,2013-08-04 17:45:00,
2013-08-04 12:54:00,69.5,62.0,30.06,East,91,3.0,3.0,77,0.00,,,0.00,Wunderground v.1.15,2013-08-04 17:54:00,
2013-08-04 13:04:00,69.9,60.8,30.06,South,184,3.0,7.0,73,0.00,,,0.00,Wunderground v.1.15,2013-08-04 18:04:00,
2013-08-04 13:10:00,69.9,60.5,30.06,ESE,111,4.0,4.0,72,0.00,,,0.00,Wunderground v.1.15,2013-08-04 18:10:00,
2013-08-04 13:19:00,69.9,60.5,30.05,SE,129,4.0,7.0,72,0.00,,,0.00,Wunderground v.1.15,2013-08-04 18:19:00,
2013-08-04 13:25:00,70.2,60.4,30.05,SE,124,4.0,11.0,71,0.00,,,0.00,Wunderground v.1.15,2013-08-04 18:25:00,
2013-08-04 13:35:00,70.6,60.7,30.05,ESE,117,4.0,9.0,71,0.00,,,0.00,Wunderground v.1.15,2013-08-04 18:35:00,
2013-08-04 13:45:00,71.0,60.7,30.04,SE,144,5.0,10.0,70,0.00,,,0.00,Wunderground v.1.15,2013-08-04 18:45:00,
2013-08-04 13:54:00,71.5,61.2,30.04,SE,126,4.0,7.0,70,0.00,,,0.00,Wunderground v.1.15,2013-08-04 18:54:00,
2013-08-04 14:04:00,71.7,61.4,30.04,East,94,5.0,5.0,70,0.00,,,0.00,Wunderground v.1.15,2013-08-04 19:04:00,
2013-08-04 14:10:00,72.0,61.7,30.04,East,88,4.0,4.0,70,0.00,,,0.00,Wunderground v.1.15,2013-08-04 19:10:00,
2013-08-04 14:20:00,72.1,61.8,30.03,SSE,148,4.0,4.0,70,0.00,,,0.00,Wunderground v.1.15,2013-08-04 19:20:00,
2013-08-04 14:30:00,72.8,62.8,30.03,ESE,106,4.0,7.0,71,0.00,,,0.00,Wunderground v.1.15,2013-08-04 19:30:00,
2013-08-04 14:40:00,73.1,62.7,30.03,SE,146,4.0,4.0,70,0.00,,,0.00,Wunderground v.1.15,2013-08-04 19:40:00,
2013-08-04 14:45:00,73.1,62.7,30.03,South,172,3.0,7.0,70,0.00,,,0.00,Wunderground v.1.15,2013-08-04 19:45:00,
2013-08-04 14:50:00,72.8,62.4,30.03,ESE,120,4.0,7.0,70,0.00,,,0.00,Wunderground v.1.15,2013-08-04 19:50:00,
2013-08-04 14:55:00,72.4,62.5,30.03,ESE,106,4.0,7.0,71,0.00,,,0.00,Wunderground v.1.15,2013-08-04 19:55:00,
2013-08-04 15:05:00,72.4,63.3,30.03,ENE,70,4.0,7.0,73,0.00,,,0.00,Wunderground v.1.15,2013-08-04 20:05:00,
2013-08-04 15:14:00,72.4,63.3,30.02,SSE,168,3.0,4.0,73,0.00,,,0.00,Wunderground v.1.15,2013-08-04 20:14:00,
2013-08-04 15:24:00,72.7,63.5,30.02,East,89,3.0,7.0,73,0.00,,,0.00,Wunderground v.1.15,2013-08-04 20:24:00,
2013-08-04 15:34:00,73.4,64.2,30.02,ESE,121,3.0,7.0,73,0.00,,,0.00,Wunderground v.1.15,2013-08-04 20:34:00,
2013-08-04 15:40:00,73.8,64.6,30.01,SSW,195,2.0,7.0,73,0.00,,,0.00,Wunderground v.1.15,2013-08-04 20:40:00,
2013-08-04 15:45:00,74.6,65.0,30.01,ESE,120,3.0,7.0,72,0.00,,,0.00,Wunderground v.1.15,2013-08-04 20:45:00,
2013-08-04 15:54:00,75.5,65.4,30.00,East,101,3.0,8.0,71,0.00,,,0.00,Wunderground v.1.15,2013-08-04 20:54:00,
2013-08-04 16:05:00,75.8,66.1,30.00,South,177,5.0,7.0,72,0.00,,,0.00,Wunderground v.1.15,2013-08-04 21:05:00,
2013-08-04 16:14:00,77.2,66.7,30.00,South,173,3.0,7.0,70,0.00,,,0.00,Wunderground v.1.15,2013-08-04 21:14:00,
2013-08-04 16:24:00,77.9,66.1,30.00,South,191,3.0,5.0,67,0.00,,,0.00,Wunderground v.1.15,2013-08-04 21:24:00,
2013-08-04 16:34:00,77.2,66.2,29.99,ESE,115,5.0,7.0,69,0.00,,,0.00,Wunderground v.1.15,2013-08-04 21:34:00,
2013-08-04 16:40:00,77.0,66.5,29.99,WSW,243,5.0,7.0,70,0.00,,,0.00,Wunderground v.1.15,2013-08-04 21:40:00,
2013-08-04 16:45:00,77.1,67.4,29.99,SE,138,4.0,7.0,72,0.00,,,0.00,Wunderground v.1.15,2013-08-04 21:45:00,
2013-08-04 16:55:00,77.4,67.3,29.98,SSW,203,2.0,7.0,71,0.00,,,0.00,Wunderground v.1.15,2013-08-04 21:55:00,
2013-08-04 17:04:00,77.3,67.2,29.98,ESE,117,3.0,7.0,71,0.00,,,0.00,Wunderground v.1.15,2013-08-04 22:04:00,
2013-08-04 17:10:00,77.5,67.4,29.98,SE,143,4.0,4.0,71,0.00,,,0.00,Wunderground v.1.15,2013-08-04 22:10:00,
2013-08-04 17:20:00,77.5,67.8,29.98,ESE,113,3.0,3.0,72,0.00,,,0.00,Wunderground v.1.15,2013-08-04 22:20:00,
2013-08-04 17:24:00,77.4,67.7,29.98,SSE,153,3.0,7.0,72,0.00,,,0.00,Wunderground v.1.15,2013-08-04 22:24:00,
2013-08-04 17:34:00,77.0,67.7,29.98,SSE,156,3.0,7.0,73,0.00,,,0.00,Wunderground v.1.15,2013-08-04 22:34:00,
2013-08-04 17:39:00,76.9,67.6,29.98,SE,141,3.0,3.0,73,0.00,,,0.00,Wunderground v.1.15,2013-08-04 22:39:00,
2013-08-04 17:49:00,76.9,67.6,29.97,East,86,3.0,7.0,73,0.00,,,0.00,Wunderground v.1.15,2013-08-04 22:49:00,
2013-08-04 17:54:00,76.8,67.9,29.97,SSW,198,3.0,7.0,74,0.00,,,0.00,Wunderground v.1.15,2013-08-04 22:54:00,
2013-08-04 18:00:00,76.9,68.0,29.97,SSE,162,3.0,3.0,74,0.00,,,0.00,Wunderground v.1.15,2013-08-04 23:00:00,
2013-08-04 18:10:00,77.0,67.3,29.97,SE,143,4.0,5.0,72,0.00,,,0.00,Wunderground v.1.15,2013-08-04 23:10:00,
2013-08-04 18:20:00,76.9,67.6,29.96,SW,225,3.0,3.0,73,0.00,,,0.00,Wunderground v.1.15,2013-08-04 23:20:00,
2013-08-04 18:25:00,77.4,68.1,29.96,South,183,3.0,3.0,73,0.00,,,0.00,Wunderground v.1.15,2013-08-04 23:25:00,
2013-08-04 18:35:00,77.6,67.9,29.95,SSE,158,3.0,3.0,72,0.00,,,0.00,Wunderground v.1.15,2013-08-04 23:35:00,
2013-08-04 18:44:00,76.9,67.6,29.95,SE,144,2.0,2.0,73,0.00,,,0.00,Wunderground v.1.15,2013-08-04 23:44:00,
2013-08-04 18:54:00,76.7,67.8,29.95,SSW,194,3.0,3.0,74,0.00,,,0.00,Wunderground v.1.15,2013-08-04 23:54:00,
2013-08-04 19:00:00,76.9,68.0,29.95,SSW,207,4.0,4.0,74,0.00,,,0.00,Wunderground v.1.15,2013-08-05 00:00:00,
2013-08-04 19:10:00,77.2,68.3,29.95,SSW,200,3.0,3.0,74,0.00,,,0.00,Wunderground v.1.15,2013-08-05 00:10:00,
2013-08-04 19:15:00,76.9,68.0,29.95,SW,214,3.0,5.0,74,0.00,,,0.00,Wunderground v.1.15,2013-08-05 00:15:00,
2013-08-04 19:25:00,76.8,67.9,29.94,ESE,103,2.0,13.0,74,0.00,,,0.00,Wunderground v.1.15,2013-08-05 00:25:00,
2013-08-04 19:35:00,76.3,68.2,29.94,SE,127,2.0,13.0,76,0.00,,,0.00,Wunderground v.1.15,2013-08-05 00:35:00,
2013-08-04 19:45:00,75.8,68.1,29.94,SSE,155,2.0,13.0,77,0.00,,,0.00,Wunderground v.1.15,2013-08-05 00:45:00,
2013-08-04 19:54:00,75.5,68.2,29.94,SE,135,1.0,13.0,78,0.00,,,0.00,Wunderground v.1.15,2013-08-05 00:54:00,
2013-08-04 20:00:00,75.4,68.4,29.94,SSW,198,1.0,13.0,79,0.00,,,0.00,Wunderground v.1.15,2013-08-05 01:00:00,
2013-08-04 20:09:00,75.1,68.1,29.94,SSE,153,1.0,1.0,79,0.00,,,0.00,Wunderground v.1.15,2013-08-05 01:09:00,
2013-08-04 20:14:00,74.9,68.3,29.94,SSW,198,1.0,13.0,80,0.00,,,0.00,Wunderground v.1.15,2013-08-05 01:14:00,
2013-08-04 20:24:00,74.4,68.2,29.94,SW,230,1.0,13.0,81,0.00,,,0.00,Wunderground v.1.15,2013-08-05 01:24:00,
2013-08-04 20:35:00,73.9,68.1,29.95,ESE,115,0.0,13.0,82,0.00,,,0.00,Wunderground v.1.15,2013-08-05 01:35:00,
2013-08-04 20:45:00,73.3,68.2,29.95,ESE,118,0.0,13.0,84,0.00,,,0.00,Wunderground v.1.15,2013-08-05 01:45:00,
2013-08-04 20:54:00,72.7,67.6,29.95,ESE,121,1.0,13.0,84,0.00,,,0.00,Wunderground v.1.15,2013-08-05 01:54:00,
2013-08-04 21:00:00,72.5,67.7,29.95,ESE,109,1.0,1.0,85,0.00,,,0.00,Wunderground v.1.15,2013-08-05 02:00:00,
2013-08-04 21:10:00,72.0,67.6,29.94,SE,124,1.0,1.0,86,0.00,,,0.00,Wunderground v.1.15,2013-08-05 02:10:00,
2013-08-04 21:15:00,71.8,67.4,29.95,SE,124,1.0,13.0,86,0.00,,,0.00,Wunderground v.1.15,2013-08-05 02:15:00,
2013-08-04 21:25:00,71.2,67.1,29.95,SE,134,0.0,13.0,87,0.00,,,0.00,Wunderground v.1.15,2013-08-05 02:25:00,
2013-08-04 21:35:00,70.9,67.2,29.95,ESE,106,0.0,13.0,88,0.00,,,0.00,Wunderground v.1.15,2013-08-05 02:35:00,
2013-08-04 21:45:00,70.5,67.1,29.96,SE,136,0.0,13.0,89,0.00,,,0.00,Wunderground v.1.15,2013-08-05 02:45:00,
2013-08-04 21:54:00,70.1,67.0,29.96,ESE,111,0.0,13.0,90,0.00,,,0.00,Wunderground v.1.15,2013-08-05 02:54:00,
2013-08-04 21:59:00,70.0,66.9,29.96,East,91,0.0,13.0,90,0.00,,,0.00,Wunderground v.1.15,2013-08-05 02:59:00,
2013-08-04 22:10:00,70.1,67.0,29.96,East,86,1.0,13.0,90,0.00,,,0.00,Wunderground v.1.15,2013-08-05 03:10:00,
2013-08-04 22:15:00,70.1,67.0,29.96,South,180,1.0,13.0,90,0.00,,,0.00,Wunderground v.1.15,2013-08-05 03:15:00,
2013-08-04 22:25:00,69.9,66.8,29.96,SSE,158,1.0,2.0,90,0.00,,,0.00,Wunderground v.1.15,2013-08-05 03:25:00,
2013-08-04 22:35:00,69.6,66.5,29.96,ESE,113,1.0,13.0,90,0.00,,,0.00,Wunderground v.1.15,2013-08-05 03:35:00,
2013-08-04 22:45:00,69.4,66.3,29.96,SW,228,1.0,2.0,90,0.00,,,0.00,Wunderground v.1.15,2013-08-05 03:45:00,
2013-08-04 22:54:00,69.2,66.5,29.96,SSE,154,1.0,13.0,91,0.00,,,0.00,Wunderground v.1.15,2013-08-05 03:54:00,
2013-08-04 23:00:00,69.1,66.4,29.96,SSW,211,1.0,1.0,91,0.00,,,0.00,Wunderground v.1.15,2013-08-05 04:00:00,
2013-08-04 23:04:00,69.0,66.3,29.95,SE,132,1.0,13.0,91,0.00,,,0.00,Wunderground v.1.15,2013-08-05 04:04:00,
2013-08-04 23:10:00,69.0,66.3,29.95,ESE,123,1.0,1.0,91,0.00,,,0.00,Wunderground v.1.15,2013-08-05 04:10:00,
2013-08-04 23:15:00,69.1,66.4,29.95,South,179,1.0,13.0,91,0.00,,,0.00,Wunderground v.1.15,2013-08-05 04:15:00,
2013-08-04 23:25:00,69.2,66.5,29.94,ESE,102,1.0,13.0,91,0.00,,,0.00,Wunderground v.1.15,2013-08-05 04:25:00,
2013-08-04 23:30:00,69.2,66.5,29.95,ESE,120,1.0,13.0,91,0.00,,,0.00,Wunderground v.1.15,2013-08-05 04:30:00,
2013-08-04 23:34:00,69.2,66.5,29.95,ESE,108,1.0,13.0,91,0.00,,,0.00,Wunderground v.1.15,2013-08-05 04:34:00,
2013-08-04 23:39:00,69.2,66.5,29.95,ESE,121,1.0,1.0,91,0.00,,,0.00,Wunderground v.1.15,2013-08-05 04:39:00,
2013-08-04 23:45:00,69.2,66.5,29.94,SSE,162,0.0,13.0,91,0.00,,,0.00,Wunderground v.1.15,2013-08-05 04:45:00,
2013-08-04 23:54:00,69.0,66.3,29.95,SE,134,0.0,13.0,91,0.00,,,0.00,Wunderground v.1.15,2013-08-05 04:54:00,